Impacts METAR Board
IDs:

KGKY - Arlington Muni, TX, US

Updated at: 1300 UTC 14 Dec 2019
Potential Impact None Slight Moderate High
Time 14/01Z 14/02Z 14/03Z 14/04Z 14/05Z 14/06Z 14/07Z 14/08Z 14/09Z 14/10Z 14/11Z 14/12Z 14/13Z
Temp50 47 48 45 45 39 38 39 43 39 38 37 37
Dewpt43 42 42 41 41 37 36 36 41 37 36 35 35
Altim29.86 29.87 29.86 29.88 29.87 29.87 29.88 29.88 29.90 29.87 29.87 29.89 29.88
VIS10 10 10 10 10 7 6 7 8 5 5 5 6
CIG-- -- -- -- -- -- -- -- -- -- -- -- --
CoverCLRCLRCLRCLRCLRCLRCLRCLRCLRCLRCLRCLRCLR
FltCatVFRVFRVFRVFRVFRVFRVFRVFRVFRMVFRMVFRMVFRVFR
WX------------BR----BRBRBRBR
WDir500036002303000260002900
WSpd4 0 0 4 0 3 4 0 3 0 0 3 0
WGst-- -- -- -- -- -- -- -- -- -- -- -- --
Raw hourly METARs
KGKY 140053Z 05004KT 10SM CLR 10/06 A2986 RMK AO2 SLP109 T01000061
KGKY 140153Z 00000KT 10SM CLR 08/06 A2987 RMK AO2 SLP112 T00830056
KGKY 140253Z AUTO 00000KT 10SM CLR 09/06 A2986 RMK AO2 SLP111 T00890056 50007
KGKY 140353Z AUTO 36004KT 10SM CLR 07/05 A2988 RMK AO2 SLP118 T00720050
KGKY 140453Z AUTO 00000KT 10SM CLR 07/05 A2987 RMK AO2 SLP112 T00720050
KGKY 140553Z AUTO 23003KT 7SM CLR 04/03 A2987 RMK AO2 SLP111 T00390028 10128 20039 401890039 50001
KGKY 140653Z AUTO 30004KT 6SM BR CLR 03/02 A2988 RMK AO2 SLP114 T00330022
KGKY 140753Z AUTO 00000KT 7SM CLR 04/02 A2988 RMK AO2 SLP116 T00390022
KGKY 140853Z AUTO 26003KT 8SM CLR 06/05 A2990 RMK AO2 SLP120 T00610050 53009
KGKY 140953Z AUTO 00000KT 5SM BR CLR 04/03 A2987 RMK AO2 SLP112 T00390028
KGKY 141100Z AUTO 00000KT 5SM BR CLR 03/02 A2987 RMK AO2 T00330022
KGKY 141153Z AUTO 29003KT 5SM BR CLR 03/02 A2989 RMK AO2 SLP119 T00280017 10072 20022 53007
KGKY 141253Z 00000KT 6SM BR CLR 03/02 A2988 RMK AO2 SLP117 T00280017



Page loaded:  13:45 UTC  |   05:45 AM Pacific  |   06:45 AM Mountain  |   07:45 AM Central  |   08:45 AM Eastern

 

ADVISORIES

FORECASTS

FORECASTS

OBSERVATIONS

USER TOOLS

ABOUT US